createdAt,value
2022-08-22T00:01:55.239Z,99.90
2022-08-22T00:02:58.751Z,99.90
2022-08-22T00:06:14.872Z,99.90
2022-08-22T00:10:34.243Z,99.90
2022-08-22T00:14:59.858Z,99.90
2022-08-22T00:19:28.396Z,99.90
2022-08-22T00:23:53.396Z,99.90
2022-08-22T00:28:18.871Z,99.90
2022-08-22T00:32:42.508Z,99.90
2022-08-22T00:37:16.886Z,99.90
2022-08-22T00:42:02.553Z,99.90
2022-08-22T00:46:12.318Z,99.90
2022-08-22T00:50:37.008Z,99.90
2022-08-22T00:54:59.854Z,99.90
2022-08-22T00:59:23.415Z,99.90
2022-08-22T01:03:52.605Z,99.90
2022-08-22T01:08:38.060Z,99.90
2022-08-22T01:12:55.480Z,99.90
2022-08-22T01:17:28.451Z,99.90
2022-08-22T01:22:13.625Z,99.90
2022-08-22T01:26:41.797Z,99.90
2022-08-22T01:31:25.841Z,99.90
2022-08-22T01:35:44.596Z,99.90
2022-08-22T01:40:09.809Z,99.90
2022-08-22T01:44:49.160Z,99.90
2022-08-22T01:49:20.931Z,99.90
2022-08-22T01:53:36.232Z,99.90
2022-08-22T01:57:54.958Z,99.90
2022-08-22T02:02:20.851Z,99.90
2022-08-22T02:06:49.295Z,99.90
2022-08-22T02:11:05.982Z,99.90
2022-08-22T02:15:45.155Z,99.90
2022-08-22T02:20:07.906Z,99.90
2022-08-22T02:24:19.228Z,99.90
2022-08-22T02:28:25.868Z,99.90
2022-08-22T02:32:41.338Z,99.90
2022-08-22T02:37:02.568Z,99.90
2022-08-22T02:41:25.219Z,99.90
2022-08-22T02:45:41.516Z,99.90
2022-08-22T02:49:50.923Z,99.90
2022-08-22T02:54:01.404Z,99.90
2022-08-22T02:58:27.166Z,99.90
2022-08-22T03:02:59.311Z,99.90
2022-08-22T03:07:25.572Z,99.90
2022-08-22T03:11:38.382Z,99.90
2022-08-22T03:16:12.744Z,99.90
2022-08-22T03:20:59.070Z,99.90
2022-08-22T03:25:14.674Z,99.90
2022-08-22T03:29:27.371Z,99.90
2022-08-22T03:33:34.308Z,99.90
2022-08-22T03:37:42.857Z,99.90
2022-08-22T03:42:02.585Z,99.90
2022-08-22T03:46:21.536Z,99.90
2022-08-22T03:51:07.045Z,99.90
2022-08-22T03:55:28.300Z,99.90
2022-08-22T04:00:00.558Z,99.90
2022-08-22T04:04:10.324Z,99.90
2022-08-22T04:09:03.072Z,99.90
2022-08-22T04:13:35.469Z,99.90
2022-08-22T04:18:07.025Z,99.90
2022-08-22T04:22:53.520Z,99.90
2022-08-22T04:27:23.466Z,99.90
2022-08-22T04:31:36.634Z,99.90
2022-08-22T04:35:45.809Z,99.90
2022-08-22T04:40:01.358Z,99.90
2022-08-22T04:44:36.090Z,99.90
2022-08-22T04:48:54.171Z,99.90
2022-08-22T04:53:25.880Z,99.90
2022-08-22T04:57:45.422Z,99.90
2022-08-22T05:01:59.171Z,99.90
2022-08-22T05:06:08.037Z,99.90
2022-08-22T05:10:39.184Z,99.90
2022-08-22T05:14:54.467Z,99.90
2022-08-22T05:19:27.099Z,99.90
2022-08-22T05:23:48.690Z,99.90
2022-08-22T05:28:15.781Z,99.90
2022-08-22T05:32:31.997Z,99.90
2022-08-22T05:36:43.716Z,99.90
2022-08-22T05:40:57.611Z,99.90
2022-08-22T05:45:12.207Z,99.90
2022-08-22T05:49:37.243Z,99.90
2022-08-22T05:53:49.670Z,99.90
2022-08-22T05:58:17.499Z,99.90
2022-08-22T06:02:36.723Z,99.90
2022-08-22T06:06:54.605Z,99.90
2022-08-22T06:11:15.279Z,99.90
2022-08-22T06:15:44.793Z,99.90
2022-08-22T06:19:55.083Z,99.90
2022-08-22T06:24:05.174Z,99.90
2022-08-22T06:28:17.279Z,99.90
2022-08-22T06:32:59.368Z,99.90
2022-08-22T06:37:02.011Z,99.90
2022-08-22T06:41:09.342Z,99.90
2022-08-22T06:45:22.063Z,99.90
2022-08-22T06:49:32.564Z,99.90
2022-08-22T06:53:53.683Z,99.90
2022-08-22T06:58:07.120Z,99.90
2022-08-22T07:02:36.347Z,99.90
2022-08-22T07:06:50.194Z,99.90
2022-08-22T07:11:26.055Z,99.90
2022-08-22T07:15:37.108Z,99.90
2022-08-22T07:19:56.008Z,99.90
2022-08-22T07:24:03.079Z,99.90
2022-08-22T07:28:36.912Z,99.90
2022-08-22T07:33:21.028Z,99.90
2022-08-22T07:37:57.828Z,99.90
2022-08-22T07:42:18.806Z,99.90
2022-08-22T07:46:31.900Z,99.90
2022-08-22T07:50:48.134Z,99.90
2022-08-22T07:55:02.525Z,99.90
2022-08-22T07:59:14.669Z,99.90
2022-08-22T08:03:23.435Z,99.90
2022-08-22T08:07:32.221Z,99.90
2022-08-22T08:11:41.678Z,99.90
2022-08-22T08:15:50.793Z,99.90
2022-08-22T08:19:58.661Z,99.90
2022-08-22T08:24:08.489Z,99.90
2022-08-22T08:28:34.206Z,99.90
2022-08-22T08:32:43.200Z,99.90
2022-08-22T08:37:09.841Z,99.90
2022-08-22T08:41:57.741Z,99.90
2022-08-22T08:46:34.061Z,99.90
2022-08-22T08:50:59.373Z,99.90
2022-08-22T08:55:32.932Z,99.90
2022-08-22T09:00:05.580Z,99.90
2022-08-22T09:04:33.383Z,99.90
2022-08-22T09:09:12.212Z,99.90
2022-08-22T09:13:29.033Z,99.90
2022-08-22T09:18:13.413Z,99.90
2022-08-22T09:22:33.471Z,99.90
2022-08-22T09:27:21.812Z,99.90
2022-08-22T09:31:48.135Z,99.90
2022-08-22T09:36:05.612Z,99.90
2022-08-22T09:45:19.161Z,99.90
2022-08-22T09:49:47.225Z,99.60
2022-08-22T09:54:16.167Z,99.80
2022-08-22T09:58:46.684Z,98.60
2022-08-22T10:03:33.287Z,98.40
2022-08-22T10:08:05.855Z,98.60
2022-08-22T10:12:19.597Z,99.10
2022-08-22T10:16:53.074Z,99.50
2022-08-22T10:21:15.828Z,99.20
2022-08-22T10:25:48.488Z,98.20
2022-08-22T10:30:16.559Z,97.30
2022-08-22T10:34:30.196Z,97.40
2022-08-22T10:38:47.085Z,97.50
2022-08-22T10:43:09.379Z,96.90
2022-08-22T10:47:21.382Z,96.60
2022-08-22T10:51:47.860Z,96.20
2022-08-22T10:56:04.820Z,95.80
2022-08-22T11:00:35.850Z,95.60
2022-08-22T11:05:03.369Z,93.80
2022-08-22T11:09:25.928Z,93.30
2022-08-22T11:14:19.826Z,93.20
2022-08-22T11:18:33.989Z,92.90
2022-08-22T11:23:12.681Z,91.90
2022-08-22T11:27:40.196Z,91.50
2022-08-22T11:31:53.772Z,92.20
2022-08-22T11:36:30.894Z,91.90
2022-08-22T11:40:46.915Z,92.50
2022-08-22T11:44:59.924Z,92.60
2022-08-22T11:49:16.782Z,92.00
2022-08-22T11:53:43.375Z,91.80
2022-08-22T11:58:02.692Z,92.60
2022-08-22T12:02:35.451Z,91.30
2022-08-22T12:07:10.179Z,91.30
2022-08-22T12:11:47.197Z,90.60
2022-08-22T12:16:14.609Z,88.90
2022-08-22T12:20:46.942Z,90.60
2022-08-22T12:25:34.919Z,89.10
2022-08-22T12:30:05.965Z,90.90
2022-08-22T12:34:24.953Z,91.00
2022-08-22T12:38:50.462Z,91.40
2022-08-22T12:43:23.222Z,90.30
2022-08-22T12:48:08.427Z,91.40
2022-08-22T12:52:25.035Z,89.20
2022-08-22T12:57:00.314Z,90.30
2022-08-22T13:01:08.999Z,90.60
2022-08-22T13:05:21.655Z,89.90
2022-08-22T13:09:38.784Z,88.60
2022-08-22T13:13:56.511Z,89.90
2022-08-22T13:18:29.313Z,89.20
2022-08-22T13:22:41.556Z,87.90
2022-08-22T13:26:59.011Z,90.50
2022-08-22T13:31:07.640Z,90.70
2022-08-22T13:35:54.841Z,85.00
2022-08-22T13:40:07.556Z,86.70
2022-08-22T13:44:21.751Z,85.50
2022-08-22T13:48:49.497Z,83.60
2022-08-22T13:53:08.039Z,81.30
2022-08-22T13:57:35.010Z,82.50
2022-08-22T14:02:15.245Z,85.30
2022-08-22T14:06:38.033Z,87.80
2022-08-22T14:11:02.247Z,87.50
2022-08-22T14:15:21.388Z,87.90
2022-08-22T14:19:52.837Z,85.90
2022-08-22T14:24:36.029Z,86.40
2022-08-22T14:28:56.588Z,86.00
2022-08-22T14:33:24.625Z,86.20
2022-08-22T14:37:38.854Z,85.30
2022-08-22T14:41:57.058Z,85.80
2022-08-22T14:46:10.199Z,87.80
2022-08-22T14:50:53.146Z,89.30
2022-08-22T14:55:08.660Z,89.00
2022-08-22T14:59:43.440Z,87.70
2022-08-22T15:04:19.279Z,88.70
2022-08-22T15:08:57.087Z,90.20
2022-08-22T15:13:08.163Z,90.40
2022-08-22T15:17:37.133Z,88.20
2022-08-22T15:21:45.564Z,87.90
2022-08-22T15:26:03.667Z,89.00
2022-08-22T15:30:18.655Z,90.90
2022-08-22T15:34:41.928Z,90.80
2022-08-22T15:39:16.059Z,91.60
2022-08-22T15:43:33.791Z,91.80
2022-08-22T15:47:49.385Z,92.30
2022-08-22T15:52:02.122Z,93.20
2022-08-22T15:56:11.937Z,92.70
2022-08-22T16:00:28.433Z,91.80
2022-08-22T16:04:49.745Z,92.10
2022-08-22T16:08:56.508Z,92.20
2022-08-22T16:13:27.488Z,90.80
2022-08-22T16:17:44.558Z,91.60
2022-08-22T16:21:52.099Z,90.30
2022-08-22T16:25:58.783Z,90.60
2022-08-22T16:30:11.563Z,89.80
2022-08-22T16:34:18.369Z,89.40
2022-08-22T16:38:36.589Z,89.80
2022-08-22T16:42:46.446Z,89.50
2022-08-22T16:46:55.410Z,89.70
2022-08-22T16:51:15.550Z,87.90
2022-08-22T16:55:31.424Z,87.30
2022-08-22T17:00:05.267Z,88.40
2022-08-22T17:04:29.927Z,88.60
2022-08-22T17:09:13.029Z,88.30
2022-08-22T17:13:26.840Z,87.80
2022-08-22T17:17:40.444Z,88.50
2022-08-22T17:22:12.765Z,89.40
2022-08-22T17:26:49.621Z,88.60
2022-08-22T17:31:04.595Z,87.10
2022-08-22T17:35:25.083Z,88.20
2022-08-22T17:40:02.001Z,89.20
2022-08-22T17:44:17.181Z,90.10
2022-08-22T17:48:48.203Z,91.50
2022-08-22T17:53:06.381Z,92.20
2022-08-22T17:57:34.271Z,92.90
2022-08-22T18:01:58.865Z,93.60
2022-08-22T18:06:09.844Z,94.00
2022-08-22T18:10:24.240Z,94.00
2022-08-22T18:14:52.424Z,94.30
2022-08-22T18:19:12.288Z,94.20
2022-08-22T18:23:36.041Z,94.00
2022-08-22T18:27:51.895Z,94.20
2022-08-22T18:32:34.958Z,94.50
2022-08-22T18:36:53.247Z,94.70
2022-08-22T18:41:26.631Z,94.90
2022-08-22T18:45:48.294Z,94.90
2022-08-22T18:49:56.215Z,95.00
2022-08-22T18:54:06.884Z,95.10
2022-08-22T18:59:06.073Z,95.40
2022-08-22T19:03:46.834Z,95.40
2022-08-22T19:08:08.540Z,95.60
2022-08-22T19:12:35.585Z,95.90
2022-08-22T19:17:06.944Z,96.40
2022-08-22T19:21:38.206Z,96.70
2022-08-22T19:26:26.199Z,97.40
2022-08-22T19:30:46.609Z,97.90
2022-08-22T19:35:21.486Z,98.90
2022-08-22T19:39:40.514Z,99.40
2022-08-22T19:43:47.910Z,99.60
2022-08-22T19:48:14.221Z,99.70
2022-08-22T19:52:51.730Z,99.90
2022-08-22T19:57:13.812Z,99.90
2022-08-22T20:01:58.028Z,99.90
2022-08-22T20:06:43.079Z,99.90
2022-08-22T20:10:58.582Z,99.90
2022-08-22T20:15:26.733Z,99.90
2022-08-22T20:24:30.599Z,99.90
2022-08-22T20:28:47.287Z,99.90
2022-08-22T20:32:59.895Z,99.90
2022-08-22T20:37:29.455Z,99.90
2022-08-22T20:41:46.188Z,99.90
2022-08-22T20:46:05.739Z,99.90
2022-08-22T20:50:13.797Z,99.90
2022-08-22T20:54:24.188Z,99.90
2022-08-22T20:58:37.730Z,99.90
2022-08-22T21:02:53.717Z,99.90
2022-08-22T21:07:01.089Z,99.90
2022-08-22T21:11:27.295Z,99.90
2022-08-22T21:15:40.938Z,99.90
2022-08-22T21:19:48.051Z,99.90
2022-08-22T21:24:07.695Z,99.90
2022-08-22T21:28:35.895Z,99.90
2022-08-22T21:32:47.041Z,99.90
2022-08-22T21:36:59.438Z,99.90
2022-08-22T21:41:06.218Z,99.90
2022-08-22T21:45:30.040Z,99.90
2022-08-22T21:49:36.766Z,99.90
2022-08-22T21:53:43.476Z,99.90
2022-08-22T21:58:32.637Z,99.90
2022-08-22T22:02:43.873Z,99.90
2022-08-22T22:06:50.762Z,99.90
2022-08-22T22:11:01.041Z,99.90
2022-08-22T22:15:10.012Z,99.90
2022-08-22T22:19:16.735Z,99.90
2022-08-22T22:23:24.796Z,99.90
2022-08-22T22:27:32.240Z,99.90
2022-08-22T22:31:39.220Z,99.90
2022-08-22T22:35:46.431Z,99.90
2022-08-22T22:39:54.706Z,99.90
2022-08-22T22:44:02.163Z,99.90
2022-08-22T22:48:09.106Z,99.90
2022-08-22T22:52:15.817Z,99.90
2022-08-22T22:56:23.864Z,99.90
2022-08-22T23:00:33.314Z,99.90
2022-08-22T23:04:43.871Z,99.90
2022-08-22T23:08:51.137Z,99.90
2022-08-22T23:12:58.570Z,99.90
2022-08-22T23:17:05.358Z,99.90
2022-08-22T23:21:17.589Z,99.90
2022-08-22T23:25:24.302Z,99.90
2022-08-22T23:29:31.196Z,99.90
2022-08-22T23:33:37.977Z,99.90
2022-08-22T23:37:44.885Z,99.90
2022-08-22T23:41:52.079Z,99.90
2022-08-22T23:45:58.875Z,99.90
2022-08-22T23:50:06.560Z,99.90
2022-08-22T23:54:13.936Z,99.90
2022-08-22T23:58:21.124Z,99.90
